sensor_id;sensor_type;location;lat;lon;timestamp;pressure;altitude;pressure_sealevel;temperature;humidity
75013;BME280;63567;49.956;20.130;2023-11-19T00:02:13;97512.09;;;2.54;93.15
75013;BME280;63567;49.956;20.130;2023-11-19T00:04:39;97515.53;;;2.54;92.47
75013;BME280;63567;49.956;20.130;2023-11-19T00:07:05;97511.16;;;2.55;93.10
75013;BME280;63567;49.956;20.130;2023-11-19T00:09:32;97507.03;;;2.52;93.29
75013;BME280;63567;49.956;20.130;2023-11-19T00:11:58;97504.28;;;2.54;93.22
75013;BME280;63567;49.956;20.130;2023-11-19T00:14:25;97506.06;;;2.53;92.37
75013;BME280;63567;49.956;20.130;2023-11-19T00:16:50;97514.56;;;2.55;93.02
75013;BME280;63567;49.956;20.130;2023-11-19T00:19:16;97507.72;;;2.54;92.84
75013;BME280;63567;49.956;20.130;2023-11-19T00:21:41;97509.38;;;2.55;92.55
75013;BME280;63567;49.956;20.130;2023-11-19T00:24:07;97498.03;;;2.56;92.57
75013;BME280;63567;49.956;20.130;2023-11-19T00:26:33;97495.44;;;2.56;92.97
75013;BME280;63567;49.956;20.130;2023-11-19T00:28:59;97491.97;;;2.56;92.63
75013;BME280;63567;49.956;20.130;2023-11-19T00:31:24;97497.06;;;2.57;92.40
75013;BME280;63567;49.956;20.130;2023-11-19T00:33:51;97484.19;;;2.56;92.25
75013;BME280;63567;49.956;20.130;2023-11-19T00:36:16;97493.66;;;2.57;92.56
75013;BME280;63567;49.956;20.130;2023-11-19T00:38:42;97491.03;;;2.57;92.62
75013;BME280;63567;49.956;20.130;2023-11-19T00:41:07;97479.69;;;2.58;92.35
75013;BME280;63567;49.956;20.130;2023-11-19T00:43:32;97474.47;;;2.58;92.36
75013;BME280;63567;49.956;20.130;2023-11-19T00:45:58;97475.31;;;2.58;92.92
75013;BME280;63567;49.956;20.130;2023-11-19T00:48:23;97452.84;;;2.57;92.99
75013;BME280;63567;49.956;20.130;2023-11-19T00:50:49;97454.53;;;2.58;92.62
75013;BME280;63567;49.956;20.130;2023-11-19T00:53:14;97452.03;;;2.57;92.26
75013;BME280;63567;49.956;20.130;2023-11-19T00:55:39;97443.28;;;2.58;93.12
75013;BME280;63567;49.956;20.130;2023-11-19T00:58:05;97441.53;;;2.58;92.39
75013;BME280;63567;49.956;20.130;2023-11-19T01:00:30;97445.75;;;2.59;92.85
75013;BME280;63567;49.956;20.130;2023-11-19T01:02:57;97453.56;;;2.59;92.23
75013;BME280;63567;49.956;20.130;2023-11-19T01:05:23;97438.78;;;2.60;92.27
75013;BME280;63567;49.956;20.130;2023-11-19T01:07:48;97436.31;;;2.58;92.85
75013;BME280;63567;49.956;20.130;2023-11-19T01:10:14;97430.03;;;2.61;92.65
75013;BME280;63567;49.956;20.130;2023-11-19T01:12:41;97428.25;;;2.61;92.44
75013;BME280;63567;49.956;20.130;2023-11-19T01:15:07;97423.03;;;2.61;92.75
75013;BME280;63567;49.956;20.130;2023-11-19T01:17:33;97421.41;;;2.60;93.11
75013;BME280;63567;49.956;20.130;2023-11-19T01:19:58;97425.66;;;2.61;92.30
75013;BME280;63567;49.956;20.130;2023-11-19T01:22:23;97429.91;;;2.62;92.75
75013;BME280;63567;49.956;20.130;2023-11-19T01:24:49;97424.72;;;2.62;92.15
75013;BME280;63567;49.956;20.130;2023-11-19T01:27:14;97431.53;;;2.63;93.18
75013;BME280;63567;49.956;20.130;2023-11-19T01:29:40;97421.13;;;2.63;92.26
75013;BME280;63567;49.956;20.130;2023-11-19T01:32:06;97427.97;;;2.64;93.25
75013;BME280;63567;49.956;20.130;2023-11-19T01:34:31;97429.63;;;2.65;92.93
75013;BME280;63567;49.956;20.130;2023-11-19T01:36:56;97436.63;;;2.65;93.44
75013;BME280;63567;49.956;20.130;2023-11-19T01:39:22;97422.78;;;2.64;92.84
75013;BME280;63567;49.956;20.130;2023-11-19T01:41:47;97420.88;;;2.66;92.90
75013;BME280;63567;49.956;20.130;2023-11-19T01:44:12;97420.06;;;2.66;92.87
75013;BME280;63567;49.956;20.130;2023-11-19T01:46:40;97419.25;;;2.65;92.48
75013;BME280;63567;49.956;20.130;2023-11-19T01:49:06;97418.16;;;2.68;92.76
75013;BME280;63567;49.956;20.130;2023-11-19T01:51:32;97410.34;;;2.68;92.58
75013;BME280;63567;49.956;20.130;2023-11-19T01:53:58;97406.94;;;2.67;92.34
75013;BME280;63567;49.956;20.130;2023-11-19T01:56:24;97399.94;;;2.68;92.48
75013;BME280;63567;49.956;20.130;2023-11-19T01:58:51;97394.75;;;2.68;93.15
75013;BME280;63567;49.956;20.130;2023-11-19T02:01:17;97392.13;;;2.68;92.73
75013;BME280;63567;49.956;20.130;2023-11-19T02:03:42;97392.13;;;2.68;92.30
75013;BME280;63567;49.956;20.130;2023-11-19T02:06:08;97396.53;;;2.67;92.79
75013;BME280;63567;49.956;20.130;2023-11-19T02:08:35;97382.72;;;2.67;92.37
75013;BME280;63567;49.956;20.130;2023-11-19T02:11:01;97378.31;;;2.67;92.90
75013;BME280;63567;49.956;20.130;2023-11-19T02:13:27;97375.72;;;2.67;92.43
75013;BME280;63567;49.956;20.130;2023-11-19T02:15:53;97375.72;;;2.67;92.42
75013;BME280;63567;49.956;20.130;2023-11-19T02:18:23;97377.50;;;2.67;92.34
75013;BME280;63567;49.956;20.130;2023-11-19T02:20:50;97373.25;;;2.66;92.46
75013;BME280;63567;49.956;20.130;2023-11-19T02:23:15;97382.72;;;2.67;92.39
75013;BME280;63567;49.956;20.130;2023-11-19T02:25:41;97371.34;;;2.68;92.02
75013;BME280;63567;49.956;20.130;2023-11-19T02:28:08;97360.94;;;2.68;91.77
75013;BME280;63567;49.956;20.130;2023-11-19T02:30:33;97349.72;;;2.67;92.78
75013;BME280;63567;49.956;20.130;2023-11-19T02:32:59;97340.41;;;2.65;92.45
75013;BME280;63567;49.956;20.130;2023-11-19T02:35:27;97324.63;;;2.66;92.83
75013;BME280;63567;49.956;20.130;2023-11-19T02:37:54;97326.44;;;2.66;92.42
75013;BME280;63567;49.956;20.130;2023-11-19T02:40:19;97310.00;;;2.65;92.93
75013;BME280;63567;49.956;20.130;2023-11-19T02:42:44;97312.59;;;2.65;92.65
75013;BME280;63567;49.956;20.130;2023-11-19T02:45:10;97307.41;;;2.65;92.51
75013;BME280;63567;49.956;20.130;2023-11-19T02:47:43;97300.41;;;2.66;92.03
75013;BME280;63567;49.956;20.130;2023-11-19T02:50:10;97298.78;;;2.65;92.00
75013;BME280;63567;49.956;20.130;2023-11-19T02:52:42;97292.59;;;2.56;92.21
75013;BME280;63567;49.956;20.130;2023-11-19T02:55:11;97292.31;;;2.59;93.14
75013;BME280;63567;49.956;20.130;2023-11-19T02:57:39;97294.94;;;2.59;92.13
75013;BME280;63567;49.956;20.130;2023-11-19T03:02:41;97285.22;;;2.61;92.35
75013;BME280;63567;49.956;20.130;2023-11-19T03:05:12;97273.19;;;2.60;92.03
75013;BME280;63567;49.956;20.130;2023-11-19T03:07:40;97261.41;;;2.56;92.62
75013;BME280;63567;49.956;20.130;2023-11-19T03:10:06;97261.81;;;2.61;92.48
75013;BME280;63567;49.956;20.130;2023-11-19T03:12:31;97260.03;;;2.62;92.50
75013;BME280;63567;49.956;20.130;2023-11-19T03:14:57;97250.47;;;2.62;92.55
75013;BME280;63567;49.956;20.130;2023-11-19T03:17:22;97244.28;;;2.63;92.25
75013;BME280;63567;49.956;20.130;2023-11-19T03:19:49;97240.88;;;2.63;92.72
75013;BME280;63567;49.956;20.130;2023-11-19T03:22:14;97239.09;;;2.63;92.67
75013;BME280;63567;49.956;20.130;2023-11-19T03:24:40;97234.88;;;2.62;92.30
75013;BME280;63567;49.956;20.130;2023-11-19T03:27:05;97232.94;;;2.64;93.05
75013;BME280;63567;49.956;20.130;2023-11-19T03:29:30;97233.91;;;2.63;92.57
75013;BME280;63567;49.956;20.130;2023-11-19T03:31:56;97223.50;;;2.63;92.53
75013;BME280;63567;49.956;20.130;2023-11-19T03:34:21;97222.69;;;2.63;92.16
75013;BME280;63567;49.956;20.130;2023-11-19T03:36:47;97226.09;;;2.63;92.71
75013;BME280;63567;49.956;20.130;2023-11-19T03:39:12;97216.50;;;2.64;92.73
75013;BME280;63567;49.956;20.130;2023-11-19T03:41:37;97225.13;;;2.64;92.44
75013;BME280;63567;49.956;20.130;2023-11-19T03:44:03;97221.72;;;2.64;93.07
75013;BME280;63567;49.956;20.130;2023-11-19T03:46:28;97214.72;;;2.64;92.56
75013;BME280;63567;49.956;20.130;2023-11-19T03:48:55;97207.88;;;2.63;92.88
75013;BME280;63567;49.956;20.130;2023-11-19T03:51:20;97219.91;;;2.64;93.26
75013;BME280;63567;49.956;20.130;2023-11-19T03:53:46;97212.13;;;2.64;92.62
75013;BME280;63567;49.956;20.130;2023-11-19T03:56:11;97205.16;;;2.65;92.75
75013;BME280;63567;49.956;20.130;2023-11-19T03:58:38;97197.38;;;2.65;92.39
75013;BME280;63567;49.956;20.130;2023-11-19T04:01:11;97182.00;;;2.62;92.19
75013;BME280;63567;49.956;20.130;2023-11-19T04:03:38;97173.13;;;2.64;93.41
75013;BME280;63567;49.956;20.130;2023-11-19T04:06:03;97177.50;;;2.64;92.48
75013;BME280;63567;49.956;20.130;2023-11-19T04:08:29;97172.31;;;2.64;92.77
75013;BME280;63567;49.956;20.130;2023-11-19T04:10:54;97155.88;;;2.63;92.63
75013;BME280;63567;49.956;20.130;2023-11-19T04:13:19;97156.69;;;2.64;92.64
75013;BME280;63567;49.956;20.130;2023-11-19T04:15:45;97162.06;;;2.62;92.45
75013;BME280;63567;49.956;20.130;2023-11-19T04:18:10;97166.28;;;2.63;92.53
75013;BME280;63567;49.956;20.130;2023-11-19T04:20:35;97166.28;;;2.63;92.76
75013;BME280;63567;49.956;20.130;2023-11-19T04:23:01;97157.78;;;2.61;92.25
75013;BME280;63567;49.956;20.130;2023-11-19T04:25:27;97150.00;;;2.61;92.98
75013;BME280;63567;49.956;20.130;2023-11-19T04:27:52;97133.69;;;2.59;93.01
75013;BME280;63567;49.956;20.130;2023-11-19T04:30:18;97130.28;;;2.59;92.39
75013;BME280;63567;49.956;20.130;2023-11-19T04:32:44;97128.63;;;2.58;92.48
75013;BME280;63567;49.956;20.130;2023-11-19T04:35:09;97124.28;;;2.58;92.55
75013;BME280;63567;49.956;20.130;2023-11-19T04:37:35;97114.13;;;2.55;92.42
75013;BME280;63567;49.956;20.130;2023-11-19T04:40:01;97119.19;;;2.57;92.85
75013;BME280;63567;49.956;20.130;2023-11-19T04:42:26;97121.09;;;2.55;92.89
75013;BME280;63567;49.956;20.130;2023-11-19T04:44:52;97121.94;;;2.55;92.82
75013;BME280;63567;49.956;20.130;2023-11-19T04:47:17;97109.06;;;2.54;92.97
75013;BME280;63567;49.956;20.130;2023-11-19T04:49:42;97098.00;;;2.52;92.64
75013;BME280;63567;49.956;20.130;2023-11-19T04:52:08;97101.41;;;2.52;92.84
75013;BME280;63567;49.956;20.130;2023-11-19T04:54:33;97091.00;;;2.52;93.04
75013;BME280;63567;49.956;20.130;2023-11-19T04:56:59;97102.34;;;2.51;93.32
75013;BME280;63567;49.956;20.130;2023-11-19T04:59:24;97091.13;;;2.51;93.20
75013;BME280;63567;49.956;20.130;2023-11-19T05:01:49;97081.84;;;2.48;93.10
75013;BME280;63567;49.956;20.130;2023-11-19T05:04:16;97066.38;;;2.46;92.97
75013;BME280;63567;49.956;20.130;2023-11-19T05:06:43;97081.03;;;2.47;92.82
75013;BME280;63567;49.956;20.130;2023-11-19T05:09:09;97090.44;;;2.49;92.73
75013;BME280;63567;49.956;20.130;2023-11-19T05:11:35;97086.22;;;2.47;93.29
75013;BME280;63567;49.956;20.130;2023-11-19T05:14:02;97090.56;;;2.47;93.31
75013;BME280;63567;49.956;20.130;2023-11-19T05:16:29;97093.34;;;2.45;92.86
75013;BME280;63567;49.956;20.130;2023-11-19T05:18:54;97088.13;;;2.45;93.20
75013;BME280;63567;49.956;20.130;2023-11-19T05:21:19;97089.06;;;2.44;92.45
75013;BME280;63567;49.956;20.130;2023-11-19T05:23:45;97078.16;;;2.41;92.75
75013;BME280;63567;49.956;20.130;2023-11-19T05:26:19;97080.59;;;2.42;92.69
75013;BME280;63567;49.956;20.130;2023-11-19T05:28:45;97078.00;;;2.42;92.95
75013;BME280;63567;49.956;20.130;2023-11-19T05:31:10;97087.56;;;2.42;93.32
75013;BME280;63567;49.956;20.130;2023-11-19T05:33:35;97085.94;;;2.41;93.23
75013;BME280;63567;49.956;20.130;2023-11-19T05:36:01;97078.16;;;2.41;92.78
75013;BME280;63567;49.956;20.130;2023-11-19T05:38:29;97081.69;;;2.40;92.73
75013;BME280;63567;49.956;20.130;2023-11-19T05:40:54;97073.06;;;2.39;92.68
75013;BME280;63567;49.956;20.130;2023-11-19T05:43:19;97069.66;;;2.39;93.10
75013;BME280;63567;49.956;20.130;2023-11-19T05:45:45;97089.63;;;2.38;93.34
75013;BME280;63567;49.956;20.130;2023-11-19T05:48:10;97086.19;;;2.38;93.32
75013;BME280;63567;49.956;20.130;2023-11-19T05:50:36;97088.00;;;2.37;92.96
75013;BME280;63567;49.956;20.130;2023-11-19T05:53:01;97083.59;;;2.38;92.34
75013;BME280;63567;49.956;20.130;2023-11-19T05:55:26;97073.19;;;2.38;92.78
75013;BME280;63567;49.956;20.130;2023-11-19T05:57:53;97070.59;;;2.38;93.00
75013;BME280;63567;49.956;20.130;2023-11-19T06:00:18;97058.59;;;2.37;93.36
75013;BME280;63567;49.956;20.130;2023-11-19T06:02:43;97040.38;;;2.37;93.03
75013;BME280;63567;49.956;20.130;2023-11-19T06:05:09;97035.19;;;2.37;93.15
75013;BME280;63567;49.956;20.130;2023-11-19T06:07:35;97030.94;;;2.36;92.74
75013;BME280;63567;49.956;20.130;2023-11-19T06:10:02;97039.53;;;2.36;92.91
75013;BME280;63567;49.956;20.130;2023-11-19T06:12:28;97031.75;;;2.36;93.22
75013;BME280;63567;49.956;20.130;2023-11-19T06:14:53;97032.59;;;2.37;92.92
75013;BME280;63567;49.956;20.130;2023-11-19T06:17:19;97031.75;;;2.36;93.28
75013;BME280;63567;49.956;20.130;2023-11-19T06:19:44;97031.75;;;2.36;92.84
75013;BME280;63567;49.956;20.130;2023-11-19T06:22:10;97037.09;;;2.35;93.13
75013;BME280;63567;49.956;20.130;2023-11-19T06:24:36;97042.13;;;2.36;93.03
75013;BME280;63567;49.956;20.130;2023-11-19T06:27:02;97035.31;;;2.35;93.56
75013;BME280;63567;49.956;20.130;2023-11-19T06:29:28;97036.66;;;2.30;92.49
75013;BME280;63567;49.956;20.130;2023-11-19T06:31:53;97043.25;;;2.34;92.21
75013;BME280;63567;49.956;20.130;2023-11-19T06:34:18;97039.00;;;2.33;92.66
75013;BME280;63567;49.956;20.130;2023-11-19T06:36:44;97041.47;;;2.34;93.07
75013;BME280;63567;49.956;20.130;2023-11-19T06:39:09;97034.63;;;2.33;92.84
75013;BME280;63567;49.956;20.130;2023-11-19T06:41:36;97041.72;;;2.31;92.57
75013;BME280;63567;49.956;20.130;2023-11-19T06:44:03;97039.13;;;2.31;92.29
75013;BME280;63567;49.956;20.130;2023-11-19T06:46:30;97045.03;;;2.33;92.32
75013;BME280;63567;49.956;20.130;2023-11-19T06:48:55;97041.59;;;2.33;93.00
75013;BME280;63567;49.956;20.130;2023-11-19T06:51:20;97041.59;;;2.33;92.94
75013;BME280;63567;49.956;20.130;2023-11-19T06:53:46;97038.19;;;2.32;93.29
75013;BME280;63567;49.956;20.130;2023-11-19T06:56:21;97024.34;;;2.32;92.24
75013;BME280;63567;49.956;20.130;2023-11-19T06:58:46;97027.63;;;2.34;92.70
75013;BME280;63567;49.956;20.130;2023-11-19T07:01:13;97025.03;;;2.34;92.60
75013;BME280;63567;49.956;20.130;2023-11-19T07:03:38;97027.50;;;2.35;93.23
75013;BME280;63567;49.956;20.130;2023-11-19T07:06:04;97014.38;;;2.37;92.93
75013;BME280;63567;49.956;20.130;2023-11-19T07:08:30;97001.22;;;2.38;92.59
75013;BME280;63567;49.956;20.130;2023-11-19T07:10:55;96992.50;;;2.39;93.07
75013;BME280;63567;49.956;20.130;2023-11-19T07:13:21;96988.09;;;2.40;92.38
75013;BME280;63567;49.956;20.130;2023-11-19T07:15:46;96973.19;;;2.42;93.02
75013;BME280;63567;49.956;20.130;2023-11-19T07:18:11;96978.09;;;2.45;92.59
75013;BME280;63567;49.956;20.130;2023-11-19T07:20:37;96974.97;;;2.41;92.78
75013;BME280;63567;49.956;20.130;2023-11-19T07:23:03;96981.25;;;2.49;92.83
75013;BME280;63567;49.956;20.130;2023-11-19T07:25:28;96974.97;;;2.51;92.96
75013;BME280;63567;49.956;20.130;2023-11-19T07:27:54;96961.00;;;2.52;93.26
75013;BME280;63567;49.956;20.130;2023-11-19T07:30:19;96953.91;;;2.54;93.08
75013;BME280;63567;49.956;20.130;2023-11-19T07:32:44;96949.50;;;2.55;92.87
75013;BME280;63567;49.956;20.130;2023-11-19T07:35:10;96947.59;;;2.57;92.61
75013;BME280;63567;49.956;20.130;2023-11-19T07:37:35;96944.56;;;2.61;92.77
75013;BME280;63567;49.956;20.130;2023-11-19T07:40:00;96946.06;;;2.64;92.31
75013;BME280;63567;49.956;20.130;2023-11-19T07:42:26;96942.34;;;2.66;93.22
75013;BME280;63567;49.956;20.130;2023-11-19T07:44:51;96953.44;;;2.68;92.99
75013;BME280;63567;49.956;20.130;2023-11-19T07:47:16;96950.69;;;2.70;92.13
75013;BME280;63567;49.956;20.130;2023-11-19T07:49:42;96962.59;;;2.73;92.39
75013;BME280;63567;49.956;20.130;2023-11-19T07:52:09;96965.06;;;2.74;92.91
75013;BME280;63567;49.956;20.130;2023-11-19T07:54:34;96961.34;;;2.77;92.58
75013;BME280;63567;49.956;20.130;2023-11-19T07:56:59;96957.53;;;2.81;91.85
75013;BME280;63567;49.956;20.130;2023-11-19T07:59:25;96958.88;;;2.85;91.78
75013;BME280;63567;49.956;20.130;2023-11-19T08:01:50;96944.75;;;2.87;92.02
75013;BME280;63567;49.956;20.130;2023-11-19T08:04:15;96945.31;;;2.91;92.08
75013;BME280;63567;49.956;20.130;2023-11-19T08:06:41;96942.41;;;2.94;91.75
75013;BME280;63567;49.956;20.130;2023-11-19T08:09:06;96943.75;;;2.98;92.46
75013;BME280;63567;49.956;20.130;2023-11-19T08:11:32;96934.72;;;3.02;91.68
75013;BME280;63567;49.956;20.130;2023-11-19T08:13:57;96928.25;;;3.06;92.07
75013;BME280;63567;49.956;20.130;2023-11-19T08:16:23;96919.22;;;3.11;92.12
75013;BME280;63567;49.956;20.130;2023-11-19T08:18:48;96920.69;;;3.13;92.21
75013;BME280;63567;49.956;20.130;2023-11-19T08:21:13;96914.25;;;3.17;91.71
75013;BME280;63567;49.956;20.130;2023-11-19T08:23:38;96913.13;;;3.20;91.57
75013;BME280;63567;49.956;20.130;2023-11-19T08:26:05;96910.22;;;3.23;91.39
75013;BME280;63567;49.956;20.130;2023-11-19T08:28:30;96913.38;;;3.26;91.34
75013;BME280;63567;49.956;20.130;2023-11-19T08:30:56;96897.63;;;3.28;90.68
75013;BME280;63567;49.956;20.130;2023-11-19T08:33:21;96894.56;;;3.33;90.32
75013;BME280;63567;49.956;20.130;2023-11-19T08:35:48;96889.06;;;3.36;89.98
75013;BME280;63567;49.956;20.130;2023-11-19T08:38:13;96886.19;;;3.39;89.68
75013;BME280;63567;49.956;20.130;2023-11-19T08:40:38;96883.56;;;3.39;89.69
75013;BME280;63567;49.956;20.130;2023-11-19T08:43:04;96884.06;;;3.42;89.46
75013;BME280;63567;49.956;20.130;2023-11-19T08:45:30;96881.34;;;3.44;89.63
75013;BME280;63567;49.956;20.130;2023-11-19T08:47:56;96892.13;;;3.49;88.68
75013;BME280;63567;49.956;20.130;2023-11-19T08:50:22;96892.78;;;3.51;88.79
75013;BME280;63567;49.956;20.130;2023-11-19T08:52:47;96894.31;;;3.54;89.13
75013;BME280;63567;49.956;20.130;2023-11-19T08:55:13;96890.41;;;3.58;89.20
75013;BME280;63567;49.956;20.130;2023-11-19T08:57:38;96891.25;;;3.58;88.73
75013;BME280;63567;49.956;20.130;2023-11-19T09:00:04;96890.00;;;3.62;89.04
75013;BME280;63567;49.956;20.130;2023-11-19T09:02:35;96885.47;;;3.64;88.81
75013;BME280;63567;49.956;20.130;2023-11-19T09:05:00;96876.81;;;3.64;88.71
75013;BME280;63567;49.956;20.130;2023-11-19T09:07:27;96877.34;;;3.67;88.63
75013;BME280;63567;49.956;20.130;2023-11-19T09:09:52;96874.59;;;3.69;88.19
75013;BME280;63567;49.956;20.130;2023-11-19T09:12:17;96875.25;;;3.71;88.19
75013;BME280;63567;49.956;20.130;2023-11-19T09:14:43;96877.69;;;3.73;87.49
75013;BME280;63567;49.956;20.130;2023-11-19T09:17:08;96873.34;;;3.73;88.10
75013;BME280;63567;49.956;20.130;2023-11-19T09:19:34;96861.94;;;3.74;88.43
75013;BME280;63567;49.956;20.130;2023-11-19T09:22:01;96863.41;;;3.77;87.65
75013;BME280;63567;49.956;20.130;2023-11-19T09:24:26;96866.69;;;3.79;87.65
75013;BME280;63567;49.956;20.130;2023-11-19T09:26:51;96853.81;;;3.77;87.30
75013;BME280;63567;49.956;20.130;2023-11-19T09:29:17;96844.72;;;3.81;87.31
75013;BME280;63567;49.956;20.130;2023-11-19T09:31:42;96831.88;;;3.80;87.25
75013;BME280;63567;49.956;20.130;2023-11-19T09:34:07;96832.53;;;3.82;87.11
75013;BME280;63567;49.956;20.130;2023-11-19T09:36:33;96831.41;;;3.84;87.50
75013;BME280;63567;49.956;20.130;2023-11-19T09:38:58;96819.19;;;3.85;87.48
75013;BME280;63567;49.956;20.130;2023-11-19T09:41:25;96809.59;;;3.85;87.42
75013;BME280;63567;49.956;20.130;2023-11-19T09:43:53;96813.66;;;3.88;87.58
75013;BME280;63567;49.956;20.130;2023-11-19T09:46:19;96805.03;;;3.87;86.95
75013;BME280;63567;49.956;20.130;2023-11-19T09:48:44;96800.63;;;3.88;87.56
75013;BME280;63567;49.956;20.130;2023-11-19T09:51:10;96807.19;;;3.92;87.16
75013;BME280;63567;49.956;20.130;2023-11-19T09:53:36;96801.97;;;3.92;86.95
75013;BME280;63567;49.956;20.130;2023-11-19T09:56:04;96796.63;;;3.94;87.08
75013;BME280;63567;49.956;20.130;2023-11-19T09:58:30;96798.09;;;3.96;87.34
75013;BME280;63567;49.956;20.130;2023-11-19T10:00:57;96783.28;;;3.97;87.00
75013;BME280;63567;49.956;20.130;2023-11-19T10:03:33;96783.13;;;3.98;87.07
75013;BME280;63567;49.956;20.130;2023-11-19T10:06:09;96776.78;;;4.01;87.19
75013;BME280;63567;49.956;20.130;2023-11-19T10:08:37;96772.91;;;4.05;87.38
75013;BME280;63567;49.956;20.130;2023-11-19T10:11:05;96771.50;;;4.10;87.17
75013;BME280;63567;49.956;20.130;2023-11-19T10:13:30;96779.34;;;4.19;87.32
75013;BME280;63567;49.956;20.130;2023-11-19T10:15:56;96779.38;;;4.27;87.28
75013;BME280;63567;49.956;20.130;2023-11-19T10:18:26;96770.78;;;4.35;87.58
75013;BME280;63567;49.956;20.130;2023-11-19T10:20:52;96769.19;;;4.42;87.12
75013;BME280;63567;49.956;20.130;2023-11-19T10:23:17;96753.91;;;4.47;87.05
75013;BME280;63567;49.956;20.130;2023-11-19T10:25:43;96742.81;;;4.53;86.71
75013;BME280;63567;49.956;20.130;2023-11-19T10:28:08;96735.19;;;4.60;86.85
75013;BME280;63567;49.956;20.130;2023-11-19T10:30:33;96737.81;;;4.68;86.60
75013;BME280;63567;49.956;20.130;2023-11-19T10:33:03;96736.06;;;4.77;86.47
75013;BME280;63567;49.956;20.130;2023-11-19T10:35:28;96734.13;;;4.87;86.23
75013;BME280;63567;49.956;20.130;2023-11-19T10:37:53;96731.69;;;4.93;86.14
75013;BME280;63567;49.956;20.130;2023-11-19T10:40:19;96722.44;;;4.99;86.18
75013;BME280;63567;49.956;20.130;2023-11-19T10:42:45;96717.03;;;5.09;85.80
75013;BME280;63567;49.956;20.130;2023-11-19T10:45:23;96713.78;;;5.15;85.15
75013;BME280;63567;49.956;20.130;2023-11-19T10:47:51;96713.78;;;5.23;84.92
75013;BME280;63567;49.956;20.130;2023-11-19T10:50:17;96698.78;;;5.25;84.50
75013;BME280;63567;49.956;20.130;2023-11-19T10:52:43;96694.69;;;5.31;84.11
75013;BME280;63567;49.956;20.130;2023-11-19T10:55:11;96697.00;;;5.34;83.81
75013;BME280;63567;49.956;20.130;2023-11-19T10:57:36;96687.19;;;5.36;83.56
75013;BME280;63567;49.956;20.130;2023-11-19T11:00:02;96676.75;;;5.36;83.20
75013;BME280;63567;49.956;20.130;2023-11-19T11:02:40;96660.25;;;5.35;82.63
75013;BME280;63567;49.956;20.130;2023-11-19T11:05:07;96653.06;;;5.38;82.38
75013;BME280;63567;49.956;20.130;2023-11-19T11:07:33;96648.19;;;5.34;82.03
75013;BME280;63567;49.956;20.130;2023-11-19T11:10:01;96648.97;;;5.35;81.86
75013;BME280;63567;49.956;20.130;2023-11-19T11:12:27;96645.56;;;5.34;81.77
75013;BME280;63567;49.956;20.130;2023-11-19T11:14:54;96640.50;;;5.33;81.32
75013;BME280;63567;49.956;20.130;2023-11-19T11:17:20;96639.69;;;5.32;82.17
75013;BME280;63567;49.956;20.130;2023-11-19T11:19:49;96633.66;;;5.32;81.89
75013;BME280;63567;49.956;20.130;2023-11-19T11:22:15;96636.28;;;5.32;82.33
75013;BME280;63567;49.956;20.130;2023-11-19T11:25:08;96618.94;;;5.31;82.69
75013;BME280;63567;49.956;20.130;2023-11-19T11:28:32;96607.84;;;5.29;82.96
75013;BME280;63567;49.956;20.130;2023-11-19T11:31:09;96601.97;;;5.27;83.20
75013;BME280;63567;49.956;20.130;2023-11-19T11:37:03;96610.81;;;5.26;83.10
75013;BME280;63567;49.956;20.130;2023-11-19T11:39:32;96603.78;;;5.26;83.05
75013;BME280;63567;49.956;20.130;2023-11-19T11:50:22;96573.59;;;5.24;82.65
75013;BME280;63567;49.956;20.130;2023-11-19T11:55:29;96561.69;;;5.21;82.90
75013;BME280;63567;49.956;20.130;2023-11-19T11:57:58;96557.44;;;5.20;83.10
75013;BME280;63567;49.956;20.130;2023-11-19T12:00:29;96563.81;;;5.18;82.61
75013;BME280;63567;49.956;20.130;2023-11-19T12:02:55;96559.59;;;5.17;82.27
75013;BME280;63567;49.956;20.130;2023-11-19T12:05:21;96564.97;;;5.15;81.98
75013;BME280;63567;49.956;20.130;2023-11-19T12:10:25;96568.22;;;5.09;82.01
75013;BME280;63567;49.956;20.130;2023-11-19T12:12:58;96555.69;;;5.04;82.34
75013;BME280;63567;49.956;20.130;2023-11-19T12:15:23;96541.31;;;5.00;82.45
75013;BME280;63567;49.956;20.130;2023-11-19T12:17:51;96545.59;;;5.01;82.65
75013;BME280;63567;49.956;20.130;2023-11-19T12:20:17;96546.72;;;4.99;82.55
75013;BME280;63567;49.956;20.130;2023-11-19T12:22:44;96536.59;;;4.96;82.53
75013;BME280;63567;49.956;20.130;2023-11-19T12:25:11;96528.94;;;4.94;83.13
75013;BME280;63567;49.956;20.130;2023-11-19T12:27:41;96518.84;;;4.91;83.39
75013;BME280;63567;49.956;20.130;2023-11-19T12:30:07;96525.38;;;4.87;83.62
75013;BME280;63567;49.956;20.130;2023-11-19T12:32:44;96519.84;;;4.82;83.51
75013;BME280;63567;49.956;20.130;2023-11-19T12:35:11;96508.91;;;4.78;83.66
75013;BME280;63567;49.956;20.130;2023-11-19T12:37:45;96507.44;;;4.76;84.30
75013;BME280;63567;49.956;20.130;2023-11-19T12:42:53;96501.06;;;4.70;85.31
75013;BME280;63567;49.956;20.130;2023-11-19T12:45:19;96488.38;;;4.67;85.12
75013;BME280;63567;49.956;20.130;2023-11-19T12:47:47;96486.06;;;4.64;85.63
75013;BME280;63567;49.956;20.130;2023-11-19T12:50:13;96481.34;;;4.59;85.29
75013;BME280;63567;49.956;20.130;2023-11-19T12:52:39;96484.31;;;4.56;85.70
75013;BME280;63567;49.956;20.130;2023-11-19T12:55:23;96487.41;;;4.51;85.92
75013;BME280;63567;49.956;20.130;2023-11-19T12:57:49;96479.25;;;4.46;85.86
75013;BME280;63567;49.956;20.130;2023-11-19T13:00:25;96472.91;;;4.41;85.87
75013;BME280;63567;49.956;20.130;2023-11-19T13:02:55;96469.16;;;4.35;85.98
75013;BME280;63567;49.956;20.130;2023-11-19T13:05:29;96465.22;;;4.31;86.34
75013;BME280;63567;49.956;20.130;2023-11-19T13:08:09;96458.25;;;4.23;86.41
75013;BME280;63567;49.956;20.130;2023-11-19T13:10:52;96447.47;;;4.18;86.55
75013;BME280;63567;49.956;20.130;2023-11-19T13:13:19;96440.00;;;4.15;86.62
75013;BME280;63567;49.956;20.130;2023-11-19T13:15:44;96445.03;;;4.08;87.25
75013;BME280;63567;49.956;20.130;2023-11-19T13:18:10;96436.56;;;4.06;86.82
75013;BME280;63567;49.956;20.130;2023-11-19T13:20:35;96429.22;;;4.02;86.97